createdAt,value
2023-03-06T00:00:18.501Z,34.160000
2023-03-06T00:05:20.618Z,34.160000
2023-03-06T00:10:22.683Z,34.288571
2023-03-06T00:15:24.820Z,34.244000
2023-03-06T00:20:26.665Z,34.208000
2023-03-06T00:25:28.987Z,33.848000
2023-03-06T00:30:31.409Z,33.896000
2023-03-06T00:35:33.446Z,33.740000
2023-03-06T00:40:35.545Z,33.488000
2023-03-06T00:45:17.371Z,33.608000
2023-03-06T00:50:19.419Z,33.620000
2023-03-06T00:55:22.105Z,33.524000
2023-03-06T01:00:24.227Z,33.440000
2023-03-06T01:05:26.362Z,33.524000
2023-03-06T01:10:28.456Z,34.004000
2023-03-06T01:15:30.500Z,34.400000
2023-03-06T01:20:32.522Z,34.760000
2023-03-06T01:25:35.015Z,35.480000
2023-03-06T01:30:17.004Z,34.172000
2023-03-06T01:35:19.481Z,33.092000
2023-03-06T01:40:21.509Z,32.756000
2023-03-06T01:45:23.618Z,32.282857
2023-03-06T01:50:25.397Z,32.384000
2023-03-06T01:55:27.785Z,33.008000
2023-03-06T02:00:29.441Z,33.332000
2023-03-06T02:05:31.372Z,32.660000
2023-03-06T02:10:33.349Z,32.300000
2023-03-06T02:15:35.497Z,31.952000
2023-03-06T02:20:17.935Z,31.352000
2023-03-06T02:25:20.105Z,30.992000
2023-03-06T02:30:22.279Z,30.457143
2023-03-06T02:35:24.565Z,30.032000
2023-03-06T02:40:26.546Z,30.080000
2023-03-06T02:45:28.817Z,30.200000
2023-03-06T02:50:30.739Z,30.176000
2023-03-06T02:55:33.035Z,30.092000
2023-03-06T03:00:35.251Z,30.200000
2023-03-06T03:05:16.928Z,30.200000
2023-03-06T03:10:18.970Z,30.116000
2023-03-06T03:15:21.446Z,29.732000
2023-03-06T03:20:23.407Z,29.287143
2023-03-06T03:25:25.396Z,29.252000
2023-03-06T03:30:27.923Z,29.732000
2023-03-06T03:35:29.940Z,29.720000
2023-03-06T03:40:31.762Z,29.660000
2023-03-06T03:45:33.730Z,29.672000
2023-03-06T03:50:35.687Z,29.636000
2023-03-06T03:55:17.402Z,28.940000
2023-03-06T04:00:19.762Z,28.580000
2023-03-06T04:05:22.288Z,28.580000
2023-03-06T04:10:24.387Z,28.580000
2023-03-06T04:15:26.534Z,28.580000
2023-03-06T04:20:28.461Z,28.532000
2023-03-06T04:25:30.370Z,28.412000
2023-03-06T04:30:32.724Z,28.328000
2023-03-06T04:35:34.860Z,28.184000
2023-03-06T04:40:16.537Z,27.908000
2023-03-06T04:45:18.569Z,27.692000
2023-03-06T04:50:20.500Z,27.680000
2023-03-06T04:55:23.046Z,27.680000
2023-03-06T05:00:25.402Z,27.584000
2023-03-06T05:05:28.070Z,27.404000
2023-03-06T05:10:30.307Z,27.320000
2023-03-06T05:15:32.230Z,27.440000
2023-03-06T05:20:34.253Z,27.500000
2023-03-06T05:25:16.020Z,27.500000
2023-03-06T05:30:18.303Z,27.500000
2023-03-06T05:35:20.859Z,27.560000
2023-03-06T05:40:22.703Z,27.615714
2023-03-06T05:45:24.881Z,27.500000
2023-03-06T05:50:26.994Z,27.380000
2023-03-06T05:55:29.355Z,27.200000
2023-03-06T06:00:31.174Z,27.140000
2023-03-06T06:05:33.089Z,27.104000
2023-03-06T06:10:34.900Z,26.960000
2023-03-06T06:15:17.020Z,26.960000
2023-03-06T06:20:19.791Z,26.960000
2023-03-06T06:25:22.051Z,26.960000
2023-03-06T06:30:24.215Z,26.960000
2023-03-06T06:35:26.366Z,26.960000
2023-03-06T06:40:28.437Z,27.128000
2023-03-06T06:45:31.088Z,27.212000
2023-03-06T06:50:33.955Z,27.512000
2023-03-06T06:55:36.028Z,27.812000
2023-03-06T07:00:17.706Z,27.944000
2023-03-06T07:05:22.036Z,28.040000
2023-03-06T07:10:22.055Z,28.064000
2023-03-06T07:15:23.947Z,28.040000
2023-03-06T07:20:26.509Z,28.088000
2023-03-06T07:25:28.257Z,28.040000
2023-03-06T07:30:30.254Z,27.992000
2023-03-06T07:35:32.348Z,27.860000
2023-03-06T07:40:34.641Z,27.860000
2023-03-06T07:45:16.091Z,27.860000
2023-03-06T07:50:18.436Z,27.860000
2023-03-06T07:55:20.370Z,27.860000
2023-03-06T08:00:22.499Z,27.860000
2023-03-06T08:05:24.731Z,27.860000
2023-03-06T08:10:26.979Z,27.872000
2023-03-06T08:15:29.156Z,28.040000
2023-03-06T08:20:31.416Z,28.040000
2023-03-06T08:25:33.372Z,28.040000
2023-03-06T08:30:35.460Z,28.040000
2023-03-06T08:35:17.586Z,28.112000
2023-03-06T08:40:19.876Z,28.220000
2023-03-06T08:45:21.949Z,28.220000
2023-03-06T08:50:23.806Z,28.310000
2023-03-06T08:55:26.509Z,28.400000
2023-03-06T09:00:28.659Z,28.460000
2023-03-06T09:05:30.752Z,28.580000
2023-03-06T09:10:32.975Z,28.952000
2023-03-06T09:15:35.107Z,29.084000
2023-03-06T09:20:16.857Z,28.940000
2023-03-06T09:25:18.776Z,28.760000
2023-03-06T09:30:21.061Z,28.640000
2023-03-06T09:35:23.470Z,28.528571
2023-03-06T09:40:25.964Z,28.400000
2023-03-06T09:45:27.624Z,28.268000
2023-03-06T09:50:29.763Z,28.160000
2023-03-06T09:55:31.674Z,28.040000
2023-03-06T10:00:34.274Z,27.884000
2023-03-06T10:05:16.061Z,27.800000
2023-03-06T10:10:18.498Z,27.680000
2023-03-06T10:15:20.373Z,27.680000
2023-03-06T10:20:23.149Z,27.680000
2023-03-06T10:25:25.401Z,27.680000
2023-03-06T10:30:27.390Z,27.656000
2023-03-06T10:35:30.792Z,27.680000
2023-03-06T10:40:31.661Z,27.680000
2023-03-06T10:45:48.465Z,27.680000
2023-03-06T10:50:35.424Z,27.680000
2023-03-06T10:55:17.336Z,27.704000
2023-03-06T11:00:20.661Z,27.860000
2023-03-06T11:05:21.930Z,27.812000
2023-03-06T11:10:24.112Z,27.680000
2023-03-06T11:15:26.200Z,27.740000
2023-03-06T11:20:30.321Z,27.860000
2023-03-06T11:25:30.103Z,28.028000
2023-03-06T11:30:32.319Z,27.992000
2023-03-06T11:35:34.504Z,27.728000
2023-03-06T11:40:16.327Z,27.836000
2023-03-06T11:45:18.299Z,28.004000
2023-03-06T11:50:20.278Z,28.040000
2023-03-06T11:55:22.063Z,28.040000
2023-03-06T12:00:23.884Z,28.078571
2023-03-06T12:05:26.473Z,28.040000
2023-03-06T12:10:28.563Z,27.956000
2023-03-06T12:15:30.760Z,27.860000
2023-03-06T12:20:32.945Z,27.860000
2023-03-06T12:25:35.133Z,27.860000
2023-03-06T12:30:17.346Z,27.788000
2023-03-06T12:35:19.445Z,27.740000
2023-03-06T12:40:21.723Z,27.860000
2023-03-06T12:45:23.411Z,27.744286
2023-03-06T12:50:25.437Z,27.680000
2023-03-06T12:55:27.748Z,27.680000
2023-03-06T13:00:29.689Z,27.680000
2023-03-06T13:05:31.909Z,27.680000
2023-03-06T13:10:34.473Z,27.560000
2023-03-06T13:15:35.873Z,27.464000
2023-03-06T13:20:17.713Z,27.500000
2023-03-06T13:25:20.281Z,27.500000
2023-03-06T13:30:22.289Z,27.345714
2023-03-06T13:35:24.230Z,27.320000
2023-03-06T13:40:26.015Z,27.320000
2023-03-06T13:45:28.148Z,27.320000
2023-03-06T13:50:31.270Z,27.488000
2023-03-06T13:55:33.781Z,27.500000
2023-03-06T14:00:35.628Z,27.500000
2023-03-06T14:05:18.198Z,27.500000
2023-03-06T14:10:20.322Z,27.392000
2023-03-06T14:15:22.703Z,27.500000
2023-03-06T14:20:24.796Z,27.500000
2023-03-06T14:25:26.439Z,27.524000
2023-03-06T14:30:29.003Z,27.620000
2023-03-06T14:35:31.557Z,27.680000
2023-03-06T14:40:33.365Z,27.680000
2023-03-06T14:45:35.304Z,27.812000
2023-03-06T14:50:17.057Z,27.836000
2023-03-06T14:55:19.171Z,27.812000
2023-03-06T15:00:21.418Z,28.028000
2023-03-06T15:05:23.381Z,28.220000
2023-03-06T15:10:25.378Z,28.220000
2023-03-06T15:15:27.469Z,28.220000
2023-03-06T15:20:29.487Z,28.220000
2023-03-06T15:25:31.571Z,28.364000
2023-03-06T15:30:33.719Z,28.400000
2023-03-06T15:35:37.811Z,28.640000
2023-03-06T15:40:17.690Z,28.904000
2023-03-06T15:45:19.843Z,29.120000
2023-03-06T15:50:21.818Z,29.240000
2023-03-06T15:55:24.003Z,29.415714
2023-03-06T16:00:27.969Z,29.732000
2023-03-06T16:05:27.820Z,30.128000
2023-03-06T16:10:29.588Z,30.464000
2023-03-06T16:15:31.833Z,30.704000
2023-03-06T16:20:34.325Z,30.692000
2023-03-06T16:25:16.104Z,30.860000
2023-03-06T16:30:18.270Z,31.028000
2023-03-06T16:35:20.835Z,31.268000
2023-03-06T16:40:22.858Z,31.562857
2023-03-06T16:45:24.755Z,31.964000
2023-03-06T16:50:27.058Z,32.456000
2023-03-06T16:55:29.253Z,31.988000
2023-03-06T17:00:31.382Z,32.348000
2023-03-06T17:05:33.270Z,32.312000
2023-03-06T17:10:35.373Z,32.672000
2023-03-06T17:15:17.201Z,32.864000
2023-03-06T17:20:19.423Z,33.224000
2023-03-06T17:25:21.597Z,33.404000
2023-03-06T17:30:23.473Z,33.182857
2023-03-06T17:35:25.709Z,33.044000
2023-03-06T17:40:27.901Z,33.404000
2023-03-06T17:45:29.911Z,32.672000
2023-03-06T17:50:32.684Z,32.720000
2023-03-06T17:55:34.996Z,32.528000
2023-03-06T18:00:16.750Z,32.264000
2023-03-06T18:05:18.671Z,31.496000
2023-03-06T18:10:20.734Z,31.076000
2023-03-06T18:15:22.896Z,31.961429
2023-03-06T18:20:25.172Z,32.444000
2023-03-06T18:25:27.791Z,32.432000
2023-03-06T18:30:29.872Z,31.940000
2023-03-06T18:35:31.853Z,32.804000
2023-03-06T18:40:33.950Z,33.656000
2023-03-06T18:45:35.951Z,34.256000
2023-03-06T18:50:17.811Z,34.460000
2023-03-06T18:55:19.587Z,34.760000
2023-03-06T19:00:21.502Z,35.756000
2023-03-06T19:05:23.769Z,37.284286
2023-03-06T19:10:25.556Z,36.020000
2023-03-06T19:15:27.563Z,35.876000
2023-03-06T19:20:29.541Z,33.320000
2023-03-06T19:25:31.684Z,33.296000
2023-03-06T19:30:33.685Z,33.788000
2023-03-06T19:35:35.948Z,33.956000
2023-03-06T19:40:17.614Z,33.896000
2023-03-06T19:45:19.538Z,33.896000
2023-03-06T19:50:21.441Z,33.788000
2023-03-06T19:55:23.671Z,33.388571
2023-03-06T20:00:25.426Z,33.500000
2023-03-06T20:05:27.408Z,33.896000
2023-03-06T20:10:29.544Z,33.776000
2023-03-06T20:15:31.558Z,33.272000
2023-03-06T20:20:33.329Z,32.768000
2023-03-06T20:25:35.061Z,32.600000
2023-03-06T20:30:16.794Z,33.236000
2023-03-06T20:35:18.665Z,32.876000
2023-03-06T20:40:20.477Z,32.576000
2023-03-06T20:45:22.605Z,33.054286
2023-03-06T20:50:24.398Z,33.332000
2023-03-06T20:55:26.306Z,33.044000
2023-03-06T21:00:28.344Z,33.032000
2023-03-06T21:05:30.365Z,32.912000
2023-03-06T21:10:32.406Z,33.092000
2023-03-06T21:15:34.468Z,33.740000
2023-03-06T21:20:16.250Z,33.932000
2023-03-06T21:25:18.341Z,33.908000
2023-03-06T21:30:20.292Z,34.160000
2023-03-06T21:35:22.153Z,34.571429
2023-03-06T21:40:24.092Z,35.192000
2023-03-06T21:45:28.000Z,35.024000
2023-03-06T21:50:28.034Z,34.592000
2023-03-06T21:55:29.978Z,34.364000
2023-03-06T22:00:31.865Z,34.688000
2023-03-06T22:05:34.002Z,34.508000
2023-03-06T22:10:35.962Z,34.688000
2023-03-06T22:15:17.824Z,33.140000
2023-03-06T22:20:19.961Z,31.268000
2023-03-06T22:25:22.000Z,30.764000
2023-03-06T22:30:23.819Z,30.997143
2023-03-06T22:35:26.271Z,30.824000
2023-03-06T22:40:29.739Z,30.740000
2023-03-06T22:45:33.206Z,30.668000
2023-03-06T22:50:33.256Z,30.812000
2023-03-06T22:55:35.318Z,30.488000
2023-03-06T23:00:17.585Z,30.152000
2023-03-06T23:05:19.693Z,29.960000
2023-03-06T23:10:20.172Z,30.020000
2023-03-06T23:15:22.763Z,30.174286
2023-03-06T23:20:25.849Z,29.804000
2023-03-06T23:25:26.836Z,29.444000
2023-03-06T23:30:31.725Z,29.408000
2023-03-06T23:35:32.390Z,29.204000
2023-03-06T23:40:35.650Z,28.808000
2023-03-06T23:45:34.686Z,28.856000
2023-03-06T23:50:17.342Z,28.940000
2023-03-06T23:55:19.958Z,28.772000
